createdAt,value
2022-08-21T00:02:25.394Z,39.90
2022-08-21T00:04:57.186Z,40.05
2022-08-21T00:07:26.985Z,39.86
2022-08-21T00:09:55.346Z,39.90
2022-08-21T00:12:23.658Z,40.03
2022-08-21T00:14:57.203Z,40.02
2022-08-21T00:17:27.707Z,40.25
2022-08-21T00:19:57.212Z,40.45
2022-08-21T00:22:26.102Z,40.48
2022-08-21T00:24:54.576Z,40.63
2022-08-21T00:27:23.977Z,40.68
2022-08-21T00:29:55.860Z,40.95
2022-08-21T00:32:27.740Z,40.59
2022-08-21T00:34:55.937Z,40.97
2022-08-21T00:37:24.115Z,40.88
2022-08-21T00:39:52.428Z,40.94
2022-08-21T00:42:23.752Z,40.93
2022-08-21T00:44:52.626Z,40.76
2022-08-21T00:47:22.262Z,40.71
2022-08-21T00:49:50.545Z,40.91
2022-08-21T00:52:28.644Z,40.82
2022-08-21T00:55:00.654Z,40.92
2022-08-21T00:57:44.044Z,40.55
2022-08-21T01:00:29.940Z,40.73
2022-08-21T01:03:03.247Z,40.78
2022-08-21T01:05:36.806Z,41.03
2022-08-21T01:08:07.872Z,40.94
2022-08-21T01:10:38.171Z,40.76
2022-08-21T01:13:11.377Z,40.95
2022-08-21T01:15:47.619Z,41.20
2022-08-21T01:18:18.556Z,41.53
2022-08-21T01:21:16.150Z,41.31
2022-08-21T01:23:49.424Z,41.66
2022-08-21T01:26:24.049Z,41.63
2022-08-21T01:29:15.664Z,41.75
2022-08-21T01:31:44.561Z,41.90
2022-08-21T01:34:13.533Z,42.17
2022-08-21T01:36:43.607Z,42.21
2022-08-21T01:39:13.083Z,42.42
2022-08-21T01:41:41.280Z,42.53
2022-08-21T01:44:11.268Z,42.48
2022-08-21T01:46:40.570Z,42.70
2022-08-21T01:49:09.830Z,42.97
2022-08-21T01:51:37.837Z,43.05
2022-08-21T01:54:08.096Z,43.09
2022-08-21T01:56:49.570Z,43.04
2022-08-21T01:59:17.604Z,43.35
2022-08-21T02:01:45.856Z,43.41
2022-08-21T02:04:13.995Z,43.35
2022-08-21T02:06:42.860Z,43.54
2022-08-21T02:09:13.672Z,43.55
2022-08-21T02:11:44.705Z,43.71
2022-08-21T02:14:16.060Z,43.80
2022-08-21T02:17:03.400Z,43.97
2022-08-21T02:19:37.856Z,44.03
2022-08-21T02:22:12.629Z,43.97
2022-08-21T02:24:54.037Z,44.30
2022-08-21T02:27:27.638Z,44.09
2022-08-21T02:29:59.370Z,44.33
2022-08-21T02:32:27.745Z,44.63
2022-08-21T02:34:56.127Z,44.76
2022-08-21T02:37:26.025Z,44.65
2022-08-21T02:39:54.823Z,44.67
2022-08-21T02:42:23.850Z,45.00
2022-08-21T02:44:52.092Z,45.01
2022-08-21T02:47:20.664Z,45.17
2022-08-21T02:49:49.453Z,45.12
2022-08-21T02:52:18.237Z,45.16
2022-08-21T02:54:48.149Z,45.46
2022-08-21T02:57:16.640Z,45.57
2022-08-21T02:59:45.525Z,45.51
2022-08-21T03:02:14.515Z,45.76
2022-08-21T03:04:46.709Z,45.56
2022-08-21T03:07:18.226Z,45.80
2022-08-21T03:09:55.502Z,46.00
2022-08-21T03:12:26.650Z,45.89
2022-08-21T03:15:00.060Z,46.07
2022-08-21T03:17:30.271Z,45.99
2022-08-21T03:19:59.167Z,46.27
2022-08-21T03:22:30.835Z,46.32
2022-08-21T03:25:00.434Z,46.21
2022-08-21T03:27:31.798Z,46.36
2022-08-21T03:30:00.248Z,46.49
2022-08-21T03:32:29.042Z,46.54
2022-08-21T03:34:57.751Z,46.47
2022-08-21T03:37:25.882Z,46.64
2022-08-21T03:39:54.417Z,46.93
2022-08-21T03:42:22.409Z,46.74
2022-08-21T03:44:50.910Z,46.93
2022-08-21T03:47:19.473Z,46.76
2022-08-21T03:49:47.677Z,46.67
2022-08-21T03:52:16.468Z,46.74
2022-08-21T03:54:46.201Z,46.74
2022-08-21T03:57:14.604Z,46.80
2022-08-21T03:59:44.353Z,46.86
2022-08-21T04:02:20.446Z,46.91
2022-08-21T04:04:49.385Z,46.97
2022-08-21T04:07:18.683Z,47.08
2022-08-21T04:09:47.515Z,47.38
2022-08-21T04:12:15.899Z,47.15
2022-08-21T04:14:44.802Z,47.06
2022-08-21T04:17:13.090Z,47.28
2022-08-21T04:19:42.025Z,47.36
2022-08-21T04:22:10.356Z,47.51
2022-08-21T04:24:39.254Z,47.33
2022-08-21T04:27:07.464Z,47.63
2022-08-21T04:29:39.916Z,47.54
2022-08-21T04:32:08.420Z,47.61
2022-08-21T04:34:38.703Z,47.49
2022-08-21T04:37:07.594Z,47.50
2022-08-21T04:39:36.565Z,47.71
2022-08-21T04:42:08.703Z,47.57
2022-08-21T04:44:37.688Z,47.62
2022-08-21T04:47:07.012Z,47.69
2022-08-21T04:49:36.403Z,47.75
2022-08-21T04:52:06.613Z,47.77
2022-08-21T04:54:35.571Z,47.99
2022-08-21T04:57:11.358Z,47.90
2022-08-21T04:59:51.488Z,48.05
2022-08-21T05:02:22.410Z,47.95
2022-08-21T05:04:54.573Z,47.96
2022-08-21T05:07:42.651Z,48.12
2022-08-21T05:10:13.895Z,48.15
2022-08-21T05:12:43.889Z,48.46
2022-08-21T05:15:14.392Z,48.38
2022-08-21T05:17:43.110Z,48.56
2022-08-21T05:20:14.820Z,48.39
2022-08-21T05:22:44.589Z,48.50
2022-08-21T05:25:12.854Z,48.70
2022-08-21T05:27:41.385Z,48.77
2022-08-21T05:30:13.098Z,48.60
2022-08-21T05:32:41.090Z,48.60
2022-08-21T05:35:10.432Z,48.60
2022-08-21T05:37:59.226Z,48.53
2022-08-21T05:40:47.594Z,48.53
2022-08-21T05:43:34.210Z,48.14
2022-08-21T05:46:02.217Z,48.29
2022-08-21T05:48:31.564Z,48.10
2022-08-21T05:51:09.708Z,47.81
2022-08-21T05:53:39.295Z,47.67
2022-08-21T05:56:07.877Z,47.83
2022-08-21T05:58:36.693Z,47.70
2022-08-21T06:01:06.544Z,47.51
2022-08-21T06:03:38.598Z,47.49
2022-08-21T06:06:07.132Z,47.45
2022-08-21T06:08:36.793Z,47.23
2022-08-21T06:11:07.906Z,47.30
2022-08-21T06:13:37.864Z,47.30
2022-08-21T06:16:15.808Z,47.08
2022-08-21T06:18:46.316Z,47.24
2022-08-21T06:21:15.285Z,47.33
2022-08-21T06:23:45.029Z,47.01
2022-08-21T06:26:15.081Z,47.19
2022-08-21T06:28:44.851Z,47.09
2022-08-21T06:31:23.078Z,46.97
2022-08-21T06:33:52.089Z,47.00
2022-08-21T06:36:24.759Z,46.91
2022-08-21T06:38:54.103Z,46.88
2022-08-21T06:41:26.452Z,46.88
2022-08-21T06:43:57.060Z,46.88
2022-08-21T06:46:29.476Z,46.63
2022-08-21T06:49:01.066Z,46.50
2022-08-21T06:51:30.892Z,46.49
2022-08-21T06:53:59.601Z,46.35
2022-08-21T06:56:28.023Z,46.19
2022-08-21T06:58:56.839Z,46.23
2022-08-21T07:01:27.932Z,46.10
2022-08-21T07:03:56.701Z,46.08
2022-08-21T07:06:26.012Z,45.58
2022-08-21T07:08:58.893Z,45.60
2022-08-21T07:11:27.223Z,45.45
2022-08-21T07:13:57.467Z,45.51
2022-08-21T07:16:26.108Z,45.17
2022-08-21T07:18:53.961Z,45.13
2022-08-21T07:21:26.026Z,44.99
2022-08-21T07:23:56.663Z,44.73
2022-08-21T07:26:27.259Z,44.83
2022-08-21T07:28:56.623Z,44.20
2022-08-21T07:31:27.237Z,44.32
2022-08-21T07:33:56.025Z,44.18
2022-08-21T07:36:24.818Z,43.64
2022-08-21T07:38:53.663Z,43.47
2022-08-21T07:41:26.627Z,43.33
2022-08-21T07:43:54.725Z,43.25
2022-08-21T07:46:24.481Z,43.08
2022-08-21T07:48:53.717Z,43.02
2022-08-21T07:51:27.887Z,42.81
2022-08-21T07:54:00.139Z,42.82
2022-08-21T07:56:31.561Z,42.63
2022-08-21T07:58:59.975Z,42.21
2022-08-21T08:01:28.040Z,42.08
2022-08-21T08:03:57.259Z,42.03
2022-08-21T08:06:27.023Z,41.69
2022-08-21T08:08:55.134Z,41.53
2022-08-21T08:11:24.795Z,41.13
2022-08-21T08:13:53.818Z,40.85
2022-08-21T08:16:22.083Z,40.62
2022-08-21T08:18:51.808Z,40.35
2022-08-21T08:21:22.813Z,40.23
2022-08-21T08:23:51.654Z,40.26
2022-08-21T08:26:20.883Z,40.06
2022-08-21T08:28:48.833Z,39.50
2022-08-21T08:31:17.694Z,39.44
2022-08-21T08:33:47.013Z,39.19
2022-08-21T08:36:20.490Z,38.95
2022-08-21T08:38:49.381Z,38.84
2022-08-21T08:41:30.762Z,38.67
2022-08-21T08:44:07.355Z,38.66
2022-08-21T08:46:57.848Z,38.65
2022-08-21T08:49:56.065Z,38.44
2022-08-21T08:52:41.503Z,38.61
2022-08-21T08:55:18.566Z,38.14
2022-08-21T08:57:50.392Z,38.20
2022-08-21T09:00:24.275Z,37.96
2022-08-21T09:03:01.430Z,37.83
2022-08-21T09:06:01.770Z,37.65
2022-08-21T09:09:19.359Z,37.72
2022-08-21T09:12:12.970Z,37.62
2022-08-21T09:14:50.773Z,37.45
2022-08-21T09:17:35.727Z,37.11
2022-08-21T09:20:38.668Z,36.96
2022-08-21T09:23:35.909Z,36.89
2022-08-21T09:26:14.318Z,36.59
2022-08-21T09:28:43.975Z,36.47
2022-08-21T09:31:34.172Z,36.21
2022-08-21T09:34:14.312Z,36.34
2022-08-21T09:36:51.469Z,36.12
2022-08-21T09:39:42.629Z,35.79
2022-08-21T09:42:28.271Z,35.65
2022-08-21T09:45:15.112Z,35.60
2022-08-21T09:47:47.701Z,35.12
2022-08-21T09:50:28.571Z,34.91
2022-08-21T09:53:02.102Z,34.65
2022-08-21T09:56:12.367Z,34.34
2022-08-21T09:58:46.119Z,34.56
2022-08-21T10:01:44.818Z,34.58
2022-08-21T10:04:15.552Z,33.80
2022-08-21T10:06:44.060Z,33.81
2022-08-21T10:09:21.754Z,33.66
2022-08-21T10:12:25.831Z,33.78
2022-08-21T10:15:14.601Z,33.65
2022-08-21T10:18:18.352Z,33.42
2022-08-21T10:21:11.777Z,33.23
2022-08-21T10:24:31.255Z,33.22
2022-08-21T10:27:42.271Z,33.44
2022-08-21T10:30:53.732Z,33.08
2022-08-21T10:33:57.763Z,34.26
2022-08-21T10:36:38.065Z,33.72
2022-08-21T10:39:39.002Z,33.11
2022-08-21T10:42:40.352Z,33.04
2022-08-21T10:45:39.658Z,32.70
2022-08-21T10:48:15.998Z,32.69
2022-08-21T10:50:57.540Z,32.31
2022-08-21T10:53:50.750Z,32.08
2022-08-21T10:56:40.938Z,32.04
2022-08-21T10:59:50.578Z,32.05
2022-08-21T11:02:39.906Z,31.77
2022-08-21T11:05:51.025Z,31.56
2022-08-21T11:08:43.201Z,31.51
2022-08-21T11:11:35.759Z,31.46
2022-08-21T11:14:50.308Z,31.17
2022-08-21T11:17:44.862Z,31.12
2022-08-21T11:20:47.867Z,31.11
2022-08-21T11:23:27.332Z,31.45
2022-08-21T11:26:06.817Z,31.12
2022-08-21T11:28:52.362Z,30.64
2022-08-21T11:31:44.863Z,30.18
2022-08-21T11:34:50.168Z,30.39
2022-08-21T11:37:59.760Z,30.12
2022-08-21T11:41:03.746Z,30.12
2022-08-21T11:44:26.937Z,30.07
2022-08-21T11:47:25.093Z,30.19
2022-08-21T11:50:34.924Z,30.04
2022-08-21T11:53:14.890Z,29.85
2022-08-21T11:55:55.530Z,29.91
2022-08-21T11:58:48.925Z,29.99
2022-08-21T12:01:28.556Z,29.64
2022-08-21T12:04:11.111Z,29.63
2022-08-21T12:06:42.583Z,29.46
2022-08-21T12:09:37.878Z,29.14
2022-08-21T12:12:39.106Z,29.08
2022-08-21T12:15:26.461Z,28.84
2022-08-21T12:18:21.889Z,28.60
2022-08-21T12:21:22.286Z,28.54
2022-08-21T12:24:14.831Z,28.53
2022-08-21T12:26:51.110Z,28.40
2022-08-21T12:29:39.151Z,28.31
2022-08-21T12:32:16.728Z,28.01
2022-08-21T12:34:54.404Z,28.04
2022-08-21T12:38:07.790Z,28.30
2022-08-21T12:40:58.801Z,27.69
2022-08-21T12:43:29.417Z,28.67
2022-08-21T12:46:00.080Z,28.07
2022-08-21T12:49:03.119Z,27.59
2022-08-21T12:51:49.470Z,27.55
2022-08-21T12:54:33.180Z,27.25
2022-08-21T12:57:07.930Z,27.52
2022-08-21T12:59:41.018Z,27.05
2022-08-21T13:02:38.310Z,27.22
2022-08-21T13:05:18.281Z,26.95
2022-08-21T13:07:49.954Z,27.06
2022-08-21T13:10:25.305Z,26.60
2022-08-21T13:13:12.419Z,26.54
2022-08-21T13:15:47.895Z,26.42
2022-08-21T13:18:27.054Z,26.24
2022-08-21T13:21:13.112Z,25.89
2022-08-21T13:23:45.062Z,26.28
2022-08-21T13:26:23.305Z,25.97
2022-08-21T13:28:52.171Z,25.84
2022-08-21T13:31:30.795Z,25.45
2022-08-21T13:34:01.785Z,25.32
2022-08-21T13:36:41.754Z,25.30
2022-08-21T13:39:16.615Z,25.16
2022-08-21T13:41:51.127Z,25.21
2022-08-21T13:44:44.792Z,25.00
2022-08-21T13:47:19.202Z,25.18
2022-08-21T13:49:52.314Z,25.02
2022-08-21T13:52:27.639Z,24.90
2022-08-21T13:55:14.558Z,24.66
2022-08-21T13:57:43.241Z,24.58
2022-08-21T14:00:31.983Z,24.48
2022-08-21T14:03:24.629Z,24.29
2022-08-21T14:05:53.526Z,24.34
2022-08-21T14:08:33.273Z,24.41
2022-08-21T14:11:05.454Z,24.55
2022-08-21T14:13:49.470Z,24.38
2022-08-21T14:16:25.541Z,24.33
2022-08-21T14:19:04.326Z,23.99
2022-08-21T14:21:48.092Z,23.76
2022-08-21T14:24:35.677Z,23.59
2022-08-21T14:27:09.639Z,23.56
2022-08-21T14:29:43.978Z,23.43
2022-08-21T14:32:26.095Z,23.42
2022-08-21T14:34:59.222Z,23.55
2022-08-21T14:37:29.252Z,23.73
2022-08-21T14:39:59.682Z,24.05
2022-08-21T14:42:30.025Z,24.14
2022-08-21T14:45:09.023Z,23.84
2022-08-21T14:47:39.808Z,23.97
2022-08-21T14:50:10.911Z,23.77
2022-08-21T14:52:41.333Z,23.76
2022-08-21T14:55:15.331Z,23.45
2022-08-21T14:57:49.742Z,23.46
2022-08-21T15:00:26.999Z,23.20
2022-08-21T15:03:06.263Z,23.23
2022-08-21T15:05:36.414Z,24.16
2022-08-21T15:08:09.273Z,23.42
2022-08-21T15:10:48.263Z,23.15
2022-08-21T15:13:27.450Z,22.89
2022-08-21T15:15:57.410Z,22.35
2022-08-21T15:18:29.692Z,22.06
2022-08-21T15:21:01.908Z,21.85
2022-08-21T15:23:31.455Z,21.90
2022-08-21T15:25:59.888Z,22.07
2022-08-21T15:28:31.736Z,22.06
2022-08-21T15:31:02.432Z,22.17
2022-08-21T15:33:30.393Z,21.85
2022-08-21T15:36:01.292Z,22.06
2022-08-21T15:38:30.688Z,21.70
2022-08-21T15:40:59.679Z,21.42
2022-08-21T15:43:32.021Z,21.40
2022-08-21T15:46:01.720Z,21.21
2022-08-21T15:48:32.339Z,21.21
2022-08-21T15:51:00.799Z,21.09
2022-08-21T15:53:31.229Z,20.92
2022-08-21T15:56:04.040Z,21.06
2022-08-21T15:58:32.513Z,21.08
2022-08-21T16:01:03.508Z,20.92
2022-08-21T16:03:33.235Z,20.93
2022-08-21T16:06:01.600Z,21.43
2022-08-21T16:08:29.970Z,21.02
2022-08-21T16:10:58.574Z,21.20
2022-08-21T16:13:36.631Z,21.13
2022-08-21T16:16:07.413Z,21.13
2022-08-21T16:18:35.903Z,21.19
2022-08-21T16:21:04.640Z,21.15
2022-08-21T16:23:32.807Z,21.28
2022-08-21T16:26:02.876Z,21.13
2022-08-21T16:28:35.828Z,21.26
2022-08-21T16:31:05.376Z,21.34
2022-08-21T16:33:41.863Z,21.22
2022-08-21T16:36:13.212Z,21.20
2022-08-21T16:38:45.361Z,21.30
2022-08-21T16:41:19.724Z,21.24
2022-08-21T16:43:52.399Z,21.38
2022-08-21T16:46:23.322Z,21.40
2022-08-21T16:48:52.098Z,22.12
2022-08-21T16:51:20.690Z,21.85
2022-08-21T16:53:50.714Z,21.54
2022-08-21T16:56:21.844Z,21.72
2022-08-21T16:58:54.211Z,21.66
2022-08-21T17:01:28.983Z,21.66
2022-08-21T17:03:58.858Z,21.63
2022-08-21T17:06:28.981Z,21.72
2022-08-21T17:08:58.969Z,21.87
2022-08-21T17:11:40.051Z,21.66
2022-08-21T17:14:22.764Z,21.62
2022-08-21T17:16:56.275Z,22.05
2022-08-21T17:19:26.575Z,21.94
2022-08-21T17:21:55.169Z,21.85
2022-08-21T17:24:24.248Z,22.13
2022-08-21T17:26:56.532Z,22.01
2022-08-21T17:29:31.463Z,22.01
2022-08-21T17:32:00.061Z,22.10
2022-08-21T17:34:31.757Z,22.16
2022-08-21T17:37:00.713Z,22.50
2022-08-21T17:39:29.536Z,22.71
2022-08-21T17:42:03.534Z,22.60
2022-08-21T17:44:34.815Z,23.60
2022-08-21T17:47:03.013Z,23.78
2022-08-21T17:49:31.266Z,24.25
2022-08-21T17:52:01.197Z,24.58
2022-08-21T17:54:30.596Z,24.95
2022-08-21T17:56:59.063Z,24.91
2022-08-21T17:59:28.122Z,25.25
2022-08-21T18:02:01.699Z,25.57
2022-08-21T18:04:31.343Z,25.42
2022-08-21T18:06:59.613Z,25.69
2022-08-21T18:09:29.905Z,26.05
2022-08-21T18:12:00.439Z,26.08
2022-08-21T18:14:34.756Z,26.06
2022-08-21T18:17:12.683Z,26.51
2022-08-21T18:19:48.933Z,25.95
2022-08-21T18:22:18.375Z,26.23
2022-08-21T18:24:46.890Z,26.30
2022-08-21T18:27:18.751Z,26.73
2022-08-21T18:29:47.769Z,26.71
2022-08-21T18:32:30.352Z,26.98
2022-08-21T18:35:03.602Z,27.25
2022-08-21T18:37:34.319Z,27.87
2022-08-21T18:40:06.937Z,28.17
2022-08-21T18:42:42.509Z,28.08
2022-08-21T18:45:26.222Z,28.69
2022-08-21T18:47:58.255Z,28.84
2022-08-21T18:50:29.356Z,29.06
2022-08-21T18:53:00.176Z,28.63
2022-08-21T18:55:31.711Z,29.21
2022-08-21T18:58:00.836Z,29.58
2022-08-21T19:00:35.741Z,29.70
2022-08-21T19:03:05.894Z,29.76
2022-08-21T19:05:36.703Z,30.02
2022-08-21T19:08:07.455Z,30.30
2022-08-21T19:10:37.484Z,30.62
2022-08-21T19:13:16.742Z,30.85
2022-08-21T19:15:50.342Z,30.96
2022-08-21T19:18:27.979Z,30.97
2022-08-21T19:20:57.627Z,30.96
2022-08-21T19:23:29.141Z,31.15
2022-08-21T19:26:03.137Z,31.31
2022-08-21T19:28:41.586Z,31.60
2022-08-21T19:31:26.141Z,31.93
2022-08-21T19:34:20.498Z,31.85
2022-08-21T19:36:52.464Z,32.23
2022-08-21T19:39:25.510Z,32.38
2022-08-21T19:41:59.222Z,32.53
2022-08-21T19:44:31.095Z,32.60
2022-08-21T19:50:00.207Z,32.69
2022-08-21T19:52:29.128Z,32.67
2022-08-21T19:54:59.944Z,32.77
2022-08-21T19:57:30.064Z,33.02
2022-08-21T19:59:58.924Z,33.29
2022-08-21T20:02:28.946Z,33.42
2022-08-21T20:04:57.817Z,33.77
2022-08-21T20:07:27.231Z,33.94
2022-08-21T20:09:57.760Z,34.26
2022-08-21T20:12:26.761Z,34.55
2022-08-21T20:14:58.503Z,34.46
2022-08-21T20:17:27.202Z,34.94
2022-08-21T20:19:56.529Z,35.03
2022-08-21T20:22:25.170Z,35.26
2022-08-21T20:24:55.307Z,35.42
2022-08-21T20:27:27.464Z,35.54
2022-08-21T20:29:57.417Z,35.78
2022-08-21T20:32:27.699Z,36.03
2022-08-21T20:34:56.682Z,35.95
2022-08-21T20:40:20.965Z,36.21
2022-08-21T20:42:53.582Z,36.30
2022-08-21T20:45:25.945Z,36.70
2022-08-21T20:48:05.587Z,36.48
2022-08-21T20:50:39.686Z,36.75
2022-08-21T20:53:26.081Z,36.73
2022-08-21T20:56:19.651Z,36.81
2022-08-21T20:59:20.293Z,36.92
2022-08-21T21:01:52.046Z,36.67
2022-08-21T21:04:45.305Z,36.45
2022-08-21T21:07:24.222Z,37.08
2022-08-21T21:09:55.886Z,36.76
2022-08-21T21:12:40.404Z,36.74
2022-08-21T21:15:27.741Z,36.98
2022-08-21T21:18:21.232Z,36.64
2022-08-21T21:21:08.555Z,37.19
2022-08-21T21:24:08.783Z,37.30
2022-08-21T21:26:53.961Z,37.54
2022-08-21T21:29:35.630Z,37.54
2022-08-21T21:32:07.708Z,37.70
2022-08-21T21:34:46.705Z,37.96
2022-08-21T21:37:56.576Z,38.25
2022-08-21T21:40:53.532Z,37.88
2022-08-21T21:43:56.647Z,38.02
2022-08-21T21:46:52.566Z,37.98
2022-08-21T21:50:00.238Z,38.38
2022-08-21T21:52:48.573Z,38.34
2022-08-21T21:56:06.408Z,38.37
2022-08-21T21:58:44.930Z,38.56
2022-08-21T22:01:23.820Z,38.72
2022-08-21T22:04:56.016Z,38.64
2022-08-21T22:07:37.579Z,38.30
2022-08-21T22:10:43.250Z,38.66
2022-08-21T22:13:29.169Z,38.93
2022-08-21T22:16:05.334Z,39.25
2022-08-21T22:18:54.690Z,39.26
2022-08-21T22:21:36.358Z,39.15
2022-08-21T22:24:22.578Z,39.62
2022-08-21T22:27:02.040Z,39.69
2022-08-21T22:32:50.399Z,39.33
2022-08-21T22:35:28.339Z,39.50
2022-08-21T22:38:12.715Z,40.00
2022-08-21T22:40:42.036Z,40.30
2022-08-21T22:43:19.500Z,40.24
2022-08-21T22:46:07.129Z,40.37
2022-08-21T22:48:53.499Z,40.83
2022-08-21T22:51:38.713Z,40.77
2022-08-21T22:54:21.748Z,41.02
2022-08-21T22:57:02.284Z,41.07
2022-08-21T22:59:40.716Z,41.31
2022-08-21T23:02:22.588Z,41.68
2022-08-21T23:04:57.459Z,41.75
2022-08-21T23:07:49.632Z,41.65
2022-08-21T23:10:30.123Z,41.81
2022-08-21T23:16:55.667Z,41.45
2022-08-21T23:19:57.925Z,41.49
2022-08-21T23:22:49.239Z,41.55
2022-08-21T23:25:36.061Z,41.73
2022-08-21T23:28:27.051Z,41.65
2022-08-21T23:31:28.927Z,41.47
2022-08-21T23:34:27.702Z,41.68
2022-08-21T23:37:23.186Z,41.86
2022-08-21T23:40:23.156Z,41.96
2022-08-21T23:43:31.008Z,41.94
2022-08-21T23:46:11.400Z,42.00
2022-08-21T23:49:19.394Z,42.03
2022-08-21T23:52:04.322Z,42.09
2022-08-21T23:55:16.337Z,42.14
2022-08-21T23:58:04.943Z,42.38
